Terminal Aerodrome Forecast
Issued by NWS

Home | Current Version | Previous Version | Text Only | Print | Product List | Glossary Off
Versions: 1 2 3 4 5 6 7 8 9 10 11 12 13 14 15 16 17 18 19 20 21 22 23 24 25 26 27

000
FTUS41 KCLE 020500
TAFFDY
TAF
KFDY 020527Z 0206/0306 26009KT 5SM BR OVC015
      TEMPO 0206/0210 6SM BR
     FM021000 27008KT 6SM BR BKN020
      TEMPO 0212/0214 SCT020
     FM021400 28008KT P6SM SCT035
     FM022200 25003KT P6SM BKN250=

USA.gov is the U.S. government's official web portal to all federal, state and local government web resources and services.